CYDQ

Dawson Creek Airport

Dawson Creek, British Columbia, Canada
METAR CYDQ 152200Z AUTO VRB04KT 9SM FEW240 21/08 A2997 RMK SLP153 DENSITY ALT 3200FT
Observed Flight Rules
Aug-15 @ 22:00 UTC (26 minutes ago) Visual Flight Rules
Wind Visibility Clouds
Variable at 4 knots 9 miles
  • Few at 24,000' AGL
Temperatures Readings
Current 21°C / 70°F
Dewpoint 8°C / 46°F
Humidity 43%
Altimeter 29.97" Hg
Pressure 1015.3 hPa
Elevation 655
METAR CYDQ 152200Z AUTO VRB04KT 9SM FEW240 21/08 A2997 RMK SLP153 DENSITY ALT 3200FT
Observed Flight Rules
Aug-15 @ 22:00 UTC
(26 minutes ago)
VFR
Wind Visibility
Variable at 4 knots 9 miles
Clouds
  • Few at 24,000' AGL
Temperature Dewpoint
21°C / 70°F 8°C / 46°F
Humidity Altimeter Pressure
43% 29.97" Hg 1015.3 hPa